Danbury, CT (06810)

7:13 PM EDT on March 29, 2015 (GMT -0400)
Wooster Sq | | Change Station
CLOSE
Current Station
Personal Weather Station
Location: Danbury, CT
Elevation: 489 ft
Nearby Weather Stations

Elev 489 ft 41.38 °N, 73.46 °W | Updated 17 seconds ago

Clear
Clear
40.6 °F
Feels Like 41 °F
N
0.0
Wind Variable Wind from SSW
Gusts 0.0 mph

Today
High -- | Low -- °F
--% Chance of Precip.
Yesterday
High -- | Low -- °F
Precip. -- in
6:42 AM 7:15 PM
Waxing Gibbous, 75% visible
Pressure 30.16 in
Visibility 10.0 miles
Clouds Clear
Windchill 41 °F
Dew Point 14 °F
Humidity 34%
Rainfall 0.00 in
Snow Depth Not available.
UV 0 out of 12
Pollen 4.80 out of 12
Air Quality Not available.
Flu Activity Not available.
METAR KDXR 292253Z 24005KT 10SM CLR 04/M14 A3014 RMK AO2 SLP212 T00391144

More Conditions Fewer Conditions

Pressure 30.16 in
Visibility 10.0 miles
Clouds Clear
Windchill 41 °F
Dew Point 14 °F
Humidity 34%
Rainfall 0.00 in
Snow Depth Not available.
UV 0 out of 12
Pollen 4.80 out of 12
Air Quality Not available.
Flu Activity Not available.
METAR KDXR 292253Z 24005KT 10SM CLR 04/M14 A3014 RMK AO2 SLP212 T00391144

More Conditions Fewer Conditions

10-Day Weather Forecast

Almanac

Astronomy

Mar. 29, 2015 Rise Set
Actual Time
Civil Twilight
Nautical Twilight
Astronomical Twilight
Moon
Length of Visible Light
Length of Day
Tomorrow will be .
, % of the Moon is Illuminated

Today's Extremes

State Highs State Lows

Community

WunderPhotos

Upload Photos

1,809,378 photos uploaded!

WunderBlogs® & News

Nearby

Air Quality

  Air Quality AQ Index Pollutant
Not available.

Snow Depth

Station Depth Elevation

Earthquake Activity

City Distance Mag. Time & Date
Minimum magnitude displayed is 2.5.

Coastal Water Temperatures

Place Temperature

Stations

Nearby Weather Stations

Station Location Temp. Windchill Dew Point Humidity Wind Precip. Elev Updated Type